EDT,Max TemperatureF,Mean TemperatureF,Min TemperatureF,Max Dew PointF,MeanDew PointF,Min DewpointF,Max Humidity, Mean Humidity, Min Humidity, Max Sea Level PressureIn, Mean Sea Level PressureIn, Min Sea Level PressureIn, Max VisibilityMiles, Mean VisibilityMiles, Min VisibilityMiles, Max Wind SpeedMPH, Mean Wind SpeedMPH, Max Gust SpeedMPH,PrecipitationIn, CloudCover, Events, WindDirDegrees
2013-7-1,78,72,66,67,64,61,93,80,67,29.99,29.91,29.84,10,6,2,17,8,21,1.01,8,Rain,43
2013-7-2,82,73,64,66,64,63,93,76,58,30.05,30.00,29.95,10,6,1,14,6,20,0.00,6,,129
2013-7-3,85,78,70,69,67,66,90,73,55,30.16,30.11,30.04,10,8,5,21,7,24,0.04,6,Rain-Thunderstorm,185
2013-7-4,78,74,70,70,67,66,97,86,74,30.21,30.16,30.13,10,7,4,15,8,18,T,7,Rain,202
2013-7-5,80,75,69,69,68,66,93,80,67,30.18,30.13,30.10,10,9,1,15,7,21,0.16,7,Rain,203
2013-7-6,86,78,69,72,69,67,97,78,59,30.18,30.12,30.02,10,8,5,23,7,28,0.13,6,Rain-Thunderstorm,204
2013-7-7,81,74,67,68,65,61,90,76,62,30.12,30.07,30.00,10,9,8,13,7,17,T,6,,234
2013-7-8,86,75,63,70,65,59,90,73,55,30.13,30.08,30.04,10,7,2,26,7,37,0.36,5,Rain-Thunderstorm,236
2013-7-9,88,79,69,73,70,66,93,77,61,30.07,30.02,29.94,9,4,0,23,9,33,1.19,8,Fog-Rain-Thunderstorm,226
2013-7-10,87,77,67,77,69,64,93,84,74,29.98,29.91,29.81,10,5,0,38,9,49,2.08,7,Fog-Rain-Thunderstorm,225
2013-7-11,78,70,61,64,59,52,93,69,45,30.04,29.99,29.92,10,9,2,17,8,22,0.02,6,Rain,355
2013-7-12,78,68,58,64,59,55,93,72,50,30.11,30.08,30.04,10,10,8,15,7,18,0.00,4,,35
2013-7-13,84,73,62,66,63,58,84,70,55,30.22,30.16,30.11,10,10,9,13,7,17,0.00,3,,84
2013-7-14,88,79,69,70,67,65,90,70,50,30.27,30.24,30.21,10,9,6,15,6,20,0.00,3,,145
2013-7-15,92,82,72,71,69,67,87,67,47,30.33,30.29,30.25,10,10,9,10,4,18,0.00,3,,232
2013-7-16,91,82,73,76,72,70,87,72,56,30.33,30.29,30.26,10,8,2,18,4,25,0.28,4,Rain-Thunderstorm,302
2013-7-17,92,83,73,73,72,69,93,73,52,30.30,30.24,30.17,10,7,5,12,5,15,0.00,4,,305
2013-7-18,93,84,74,75,72,70,93,71,49,30.19,30.11,30.03,10,7,4,14,5,16,0.00,2,,268
2013-7-19,91,83,75,72,71,69,87,71,55,30.03,29.94,29.86,8,6,5,21,10,25,0.00,3,,230
2013-7-20,80,75,70,70,68,66,90,81,71,29.93,29.88,29.82,10,8,2,20,7,23,0.28,6,Rain,237
2013-7-21,86,78,69,70,67,64,97,74,51,29.98,29.94,29.91,10,6,1,23,3,30,T,7,Rain-Thunderstorm,31
2013-7-22,75,71,66,70,65,62,93,86,78,29.95,29.86,29.78,9,5,2,15,5,17,0.21,7,Rain,68
2013-7-23,83,74,65,70,66,63,100,85,69,29.81,29.76,29.69,10,4,0,18,8,24,1.07,6,Fog-Rain-Thunderstorm,263
2013-7-24,71,63,55,62,54,51,86,71,55,30.03,29.93,29.80,10,10,9,16,8,20,0.00,5,,24
2013-7-25,76,64,52,53,50,48,89,65,41,30.11,30.07,30.04,10,10,8,14,6,18,0.00,1,,49
2013-7-26,79,67,54,58,54,51,86,63,40,30.11,30.06,29.98,10,10,8,13,4,16,0.00,2,,196
2013-7-27,71,67,63,65,62,58,93,81,68,29.97,29.90,29.83,8,5,3,15,7,18,0.11,7,Rain,208
2013-7-28,71,64,57,60,53,49,93,70,47,30.02,29.95,29.87,10,9,4,17,8,24,0.00,5,,259
2013-7-29,72,64,55,55,53,48,86,65,44,30.20,30.11,30.04,10,10,9,18,6,24,0.00,5,,255
2013-7-30,79,67,54,61,56,53,93,68,42,30.25,30.20,30.16,10,9,2,9,3,17,0.00,3,,274
2013-7-31,76,69,61,65,61,58,90,77,64,30.16,30.07,29.95,9,6,3,12,4,14,0.17,8,Rain,158